sensor_id;sensor_type;location;lat;lon;timestamp;P1;durP1;ratioP1;P2;durP2;ratioP2
31758;SDS011;36334;51.366;0.020;2022-12-18T00:01:58;52.08;;;22.27;;
31758;SDS011;36334;51.366;0.020;2022-12-18T00:04:45;48.25;;;20.75;;
31758;SDS011;36334;51.366;0.020;2022-12-18T00:07:31;39.60;;;21.42;;
31758;SDS011;36334;51.366;0.020;2022-12-18T00:10:20;45.42;;;21.55;;
31758;SDS011;36334;51.366;0.020;2022-12-18T00:13:09;42.45;;;22.48;;
31758;SDS011;36334;51.366;0.020;2022-12-18T00:16:01;45.63;;;24.23;;
31758;SDS011;36334;51.366;0.020;2022-12-18T00:21:38;53.88;;;25.17;;
31758;SDS011;36334;51.366;0.020;2022-12-18T00:24:25;41.78;;;21.27;;
31758;SDS011;36334;51.366;0.020;2022-12-18T00:27:10;54.00;;;24.33;;
31758;SDS011;36334;51.366;0.020;2022-12-18T00:29:57;46.40;;;23.40;;
31758;SDS011;36334;51.366;0.020;2022-12-18T00:32:42;52.05;;;23.60;;
31758;SDS011;36334;51.366;0.020;2022-12-18T00:35:28;43.00;;;22.10;;
31758;SDS011;36334;51.366;0.020;2022-12-18T00:38:15;51.80;;;24.45;;
31758;SDS011;36334;51.366;0.020;2022-12-18T00:41:01;50.50;;;22.05;;
31758;SDS011;36334;51.366;0.020;2022-12-18T00:43:48;48.05;;;22.08;;
31758;SDS011;36334;51.366;0.020;2022-12-18T00:46:34;45.80;;;20.52;;
31758;SDS011;36334;51.366;0.020;2022-12-18T00:49:20;41.85;;;19.63;;
31758;SDS011;36334;51.366;0.020;2022-12-18T00:52:07;48.50;;;21.50;;
31758;SDS011;36334;51.366;0.020;2022-12-18T00:54:53;46.65;;;20.67;;
31758;SDS011;36334;51.366;0.020;2022-12-18T00:57:39;43.78;;;21.23;;
31758;SDS011;36334;51.366;0.020;2022-12-18T01:00:26;46.55;;;21.77;;
31758;SDS011;36334;51.366;0.020;2022-12-18T01:03:13;50.13;;;20.35;;
31758;SDS011;36334;51.366;0.020;2022-12-18T01:06:09;38.47;;;20.42;;
31758;SDS011;36334;51.366;0.020;2022-12-18T01:08:57;43.03;;;19.95;;
31758;SDS011;36334;51.366;0.020;2022-12-18T01:11:43;46.78;;;21.17;;
31758;SDS011;36334;51.366;0.020;2022-12-18T01:14:29;42.53;;;20.20;;
31758;SDS011;36334;51.366;0.020;2022-12-18T01:17:18;40.75;;;19.50;;
31758;SDS011;36334;51.366;0.020;2022-12-18T01:20:05;37.20;;;18.45;;
31758;SDS011;36334;51.366;0.020;2022-12-18T01:22:52;44.03;;;19.77;;
31758;SDS011;36334;51.366;0.020;2022-12-18T01:25:38;43.42;;;22.65;;
31758;SDS011;36334;51.366;0.020;2022-12-18T01:28:27;42.65;;;17.48;;
31758;SDS011;36334;51.366;0.020;2022-12-18T01:31:18;40.03;;;19.45;;
31758;SDS011;36334;51.366;0.020;2022-12-18T01:34:08;39.20;;;17.92;;
31758;SDS011;36334;51.366;0.020;2022-12-18T01:36:55;43.70;;;18.95;;
31758;SDS011;36334;51.366;0.020;2022-12-18T01:39:40;43.00;;;19.08;;
31758;SDS011;36334;51.366;0.020;2022-12-18T01:42:26;44.53;;;18.95;;
31758;SDS011;36334;51.366;0.020;2022-12-18T01:48:07;45.70;;;16.98;;
31758;SDS011;36334;51.366;0.020;2022-12-18T01:50:54;43.38;;;20.60;;
31758;SDS011;36334;51.366;0.020;2022-12-18T01:53:41;37.15;;;19.08;;
31758;SDS011;36334;51.366;0.020;2022-12-18T01:56:28;41.03;;;17.60;;
31758;SDS011;36334;51.366;0.020;2022-12-18T01:59:15;35.92;;;18.13;;
31758;SDS011;36334;51.366;0.020;2022-12-18T02:02:02;41.22;;;18.45;;
31758;SDS011;36334;51.366;0.020;2022-12-18T02:04:49;33.55;;;16.75;;
31758;SDS011;36334;51.366;0.020;2022-12-18T02:10:47;42.50;;;18.40;;
31758;SDS011;36334;51.366;0.020;2022-12-18T02:20:16;40.78;;;18.45;;
31758;SDS011;36334;51.366;0.020;2022-12-18T02:26:47;36.40;;;16.40;;
31758;SDS011;36334;51.366;0.020;2022-12-18T02:29:40;37.95;;;18.65;;
31758;SDS011;36334;51.366;0.020;2022-12-18T02:32:39;38.95;;;17.45;;
31758;SDS011;36334;51.366;0.020;2022-12-18T02:35:29;38.30;;;17.00;;
31758;SDS011;36334;51.366;0.020;2022-12-18T02:38:18;35.38;;;16.80;;
31758;SDS011;36334;51.366;0.020;2022-12-18T02:41:06;38.40;;;17.15;;
31758;SDS011;36334;51.366;0.020;2022-12-18T02:43:56;32.95;;;16.52;;
31758;SDS011;36334;51.366;0.020;2022-12-18T02:46:45;35.33;;;15.27;;
31758;SDS011;36334;51.366;0.020;2022-12-18T03:02:02;37.65;;;17.50;;
31758;SDS011;36334;51.366;0.020;2022-12-18T03:05:20;31.50;;;15.45;;
31758;SDS011;36334;51.366;0.020;2022-12-18T03:08:24;30.08;;;15.73;;
31758;SDS011;36334;51.366;0.020;2022-12-18T03:11:16;30.95;;;15.40;;
31758;SDS011;36334;51.366;0.020;2022-12-18T03:14:25;36.35;;;16.77;;
31758;SDS011;36334;51.366;0.020;2022-12-18T03:17:18;32.70;;;16.30;;
31758;SDS011;36334;51.366;0.020;2022-12-18T03:20:14;36.05;;;16.17;;
31758;SDS011;36334;51.366;0.020;2022-12-18T03:26:23;37.58;;;16.10;;
31758;SDS011;36334;51.366;0.020;2022-12-18T03:29:20;32.83;;;14.30;;
31758;SDS011;36334;51.366;0.020;2022-12-18T03:32:31;35.83;;;15.15;;
31758;SDS011;36334;51.366;0.020;2022-12-18T03:35:29;31.90;;;14.63;;
31758;SDS011;36334;51.366;0.020;2022-12-18T03:38:20;33.70;;;15.55;;
31758;SDS011;36334;51.366;0.020;2022-12-18T03:44:32;31.45;;;15.18;;
31758;SDS011;36334;51.366;0.020;2022-12-18T03:47:30;29.40;;;14.60;;
31758;SDS011;36334;51.366;0.020;2022-12-18T03:50:34;32.28;;;14.65;;
31758;SDS011;36334;51.366;0.020;2022-12-18T03:56:43;40.55;;;15.80;;
31758;SDS011;36334;51.366;0.020;2022-12-18T04:08:19;39.20;;;16.23;;
31758;SDS011;36334;51.366;0.020;2022-12-18T04:12:14;33.70;;;14.18;;
31758;SDS011;36334;51.366;0.020;2022-12-18T04:15:12;31.20;;;16.02;;
31758;SDS011;36334;51.366;0.020;2022-12-18T04:18:01;32.20;;;14.82;;
31758;SDS011;36334;51.366;0.020;2022-12-18T04:20:55;35.50;;;16.15;;
31758;SDS011;36334;51.366;0.020;2022-12-18T04:23:41;35.63;;;16.08;;
31758;SDS011;36334;51.366;0.020;2022-12-18T04:26:28;35.72;;;14.95;;
31758;SDS011;36334;51.366;0.020;2022-12-18T04:29:29;33.13;;;14.95;;
31758;SDS011;36334;51.366;0.020;2022-12-18T04:32:15;34.38;;;16.83;;
31758;SDS011;36334;51.366;0.020;2022-12-18T04:35:02;35.38;;;15.82;;
31758;SDS011;36334;51.366;0.020;2022-12-18T04:37:50;31.83;;;16.33;;
31758;SDS011;36334;51.366;0.020;2022-12-18T04:40:40;35.88;;;18.20;;
31758;SDS011;36334;51.366;0.020;2022-12-18T04:43:35;35.92;;;18.20;;
31758;SDS011;36334;51.366;0.020;2022-12-18T04:46:24;41.60;;;17.92;;
31758;SDS011;36334;51.366;0.020;2022-12-18T04:49:10;39.60;;;18.75;;
31758;SDS011;36334;51.366;0.020;2022-12-18T04:51:57;33.72;;;16.40;;
31758;SDS011;36334;51.366;0.020;2022-12-18T04:54:43;41.08;;;18.48;;
31758;SDS011;36334;51.366;0.020;2022-12-18T04:57:29;37.70;;;17.70;;
31758;SDS011;36334;51.366;0.020;2022-12-18T05:05:23;33.97;;;16.33;;
31758;SDS011;36334;51.366;0.020;2022-12-18T05:08:09;46.88;;;17.73;;
31758;SDS011;36334;51.366;0.020;2022-12-18T05:10:59;59.92;;;18.35;;
31758;SDS011;36334;51.366;0.020;2022-12-18T05:13:50;41.05;;;18.88;;
31758;SDS011;36334;51.366;0.020;2022-12-18T05:16:36;33.20;;;17.23;;
31758;SDS011;36334;51.366;0.020;2022-12-18T05:19:25;32.70;;;17.30;;
31758;SDS011;36334;51.366;0.020;2022-12-18T05:29:34;35.97;;;17.63;;
31758;SDS011;36334;51.366;0.020;2022-12-18T05:32:21;35.22;;;18.38;;
31758;SDS011;36334;51.366;0.020;2022-12-18T05:35:08;37.65;;;16.80;;
31758;SDS011;36334;51.366;0.020;2022-12-18T05:37:55;36.08;;;18.48;;
31758;SDS011;36334;51.366;0.020;2022-12-18T05:40:41;41.60;;;19.60;;
31758;SDS011;36334;51.366;0.020;2022-12-18T05:43:30;38.22;;;18.13;;
31758;SDS011;36334;51.366;0.020;2022-12-18T05:46:17;41.28;;;18.50;;
31758;SDS011;36334;51.366;0.020;2022-12-18T05:49:03;38.60;;;17.77;;
31758;SDS011;36334;51.366;0.020;2022-12-18T05:51:49;36.03;;;18.77;;
31758;SDS011;36334;51.366;0.020;2022-12-18T05:54:35;41.75;;;18.30;;
31758;SDS011;36334;51.366;0.020;2022-12-18T05:57:21;39.75;;;17.70;;
31758;SDS011;36334;51.366;0.020;2022-12-18T06:00:08;42.95;;;21.30;;
31758;SDS011;36334;51.366;0.020;2022-12-18T06:03:05;37.35;;;19.17;;
31758;SDS011;36334;51.366;0.020;2022-12-18T06:05:52;35.00;;;17.13;;
31758;SDS011;36334;51.366;0.020;2022-12-18T06:08:38;38.05;;;17.25;;
31758;SDS011;36334;51.366;0.020;2022-12-18T06:11:31;34.72;;;19.67;;
31758;SDS011;36334;51.366;0.020;2022-12-18T06:14:17;37.85;;;19.45;;
31758;SDS011;36334;51.366;0.020;2022-12-18T06:17:03;38.25;;;18.55;;
31758;SDS011;36334;51.366;0.020;2022-12-18T06:19:49;37.95;;;17.63;;
31758;SDS011;36334;51.366;0.020;2022-12-18T06:22:36;40.58;;;18.23;;
31758;SDS011;36334;51.366;0.020;2022-12-18T06:25:22;32.88;;;17.40;;
31758;SDS011;36334;51.366;0.020;2022-12-18T06:28:08;33.55;;;17.30;;
31758;SDS011;36334;51.366;0.020;2022-12-18T06:30:55;37.20;;;18.58;;
31758;SDS011;36334;51.366;0.020;2022-12-18T06:33:41;40.83;;;20.30;;
31758;SDS011;36334;51.366;0.020;2022-12-18T06:36:30;33.13;;;18.58;;
31758;SDS011;36334;51.366;0.020;2022-12-18T06:39:16;41.33;;;18.65;;
31758;SDS011;36334;51.366;0.020;2022-12-18T06:42:05;39.80;;;16.15;;
31758;SDS011;36334;51.366;0.020;2022-12-18T06:44:51;36.95;;;17.58;;
31758;SDS011;36334;51.366;0.020;2022-12-18T06:47:37;32.40;;;16.55;;
31758;SDS011;36334;51.366;0.020;2022-12-18T06:50:23;36.75;;;17.70;;
31758;SDS011;36334;51.366;0.020;2022-12-18T06:53:09;34.47;;;16.08;;
31758;SDS011;36334;51.366;0.020;2022-12-18T06:56:00;34.40;;;16.58;;
31758;SDS011;36334;51.366;0.020;2022-12-18T06:58:55;34.50;;;16.77;;
31758;SDS011;36334;51.366;0.020;2022-12-18T07:01:41;31.42;;;15.40;;
31758;SDS011;36334;51.366;0.020;2022-12-18T07:04:28;29.35;;;15.15;;
31758;SDS011;36334;51.366;0.020;2022-12-18T07:07:15;37.90;;;16.25;;
31758;SDS011;36334;51.366;0.020;2022-12-18T07:10:00;34.10;;;15.52;;
31758;SDS011;36334;51.366;0.020;2022-12-18T07:12:46;34.88;;;16.77;;
31758;SDS011;36334;51.366;0.020;2022-12-18T07:15:33;33.15;;;16.30;;
31758;SDS011;36334;51.366;0.020;2022-12-18T07:18:24;33.80;;;16.70;;
31758;SDS011;36334;51.366;0.020;2022-12-18T07:21:14;33.45;;;17.00;;
31758;SDS011;36334;51.366;0.020;2022-12-18T07:24:03;37.92;;;18.25;;
31758;SDS011;36334;51.366;0.020;2022-12-18T07:26:50;34.58;;;16.40;;
31758;SDS011;36334;51.366;0.020;2022-12-18T07:29:36;31.48;;;16.65;;
31758;SDS011;36334;51.366;0.020;2022-12-18T07:32:22;30.65;;;15.93;;
31758;SDS011;36334;51.366;0.020;2022-12-18T07:35:09;37.35;;;16.45;;
31758;SDS011;36334;51.366;0.020;2022-12-18T07:37:55;38.13;;;18.73;;
31758;SDS011;36334;51.366;0.020;2022-12-18T07:40:41;38.83;;;17.38;;
31758;SDS011;36334;51.366;0.020;2022-12-18T07:43:29;40.75;;;19.23;;
31758;SDS011;36334;51.366;0.020;2022-12-18T07:46:16;35.88;;;17.10;;
31758;SDS011;36334;51.366;0.020;2022-12-18T07:49:04;35.35;;;18.15;;
31758;SDS011;36334;51.366;0.020;2022-12-18T07:51:51;37.13;;;16.98;;
31758;SDS011;36334;51.366;0.020;2022-12-18T07:54:39;37.58;;;17.63;;
31758;SDS011;36334;51.366;0.020;2022-12-18T07:57:26;30.10;;;16.35;;
31758;SDS011;36334;51.366;0.020;2022-12-18T08:00:32;33.20;;;17.25;;
31758;SDS011;36334;51.366;0.020;2022-12-18T08:03:18;34.20;;;18.35;;
31758;SDS011;36334;51.366;0.020;2022-12-18T08:06:08;33.50;;;18.45;;
31758;SDS011;36334;51.366;0.020;2022-12-18T08:08:55;39.33;;;18.48;;
31758;SDS011;36334;51.366;0.020;2022-12-18T08:11:42;36.10;;;18.73;;
31758;SDS011;36334;51.366;0.020;2022-12-18T08:14:29;32.10;;;17.00;;
31758;SDS011;36334;51.366;0.020;2022-12-18T08:17:14;37.67;;;18.00;;
31758;SDS011;36334;51.366;0.020;2022-12-18T08:20:04;38.97;;;18.13;;
31758;SDS011;36334;51.366;0.020;2022-12-18T08:22:54;37.15;;;18.23;;
31758;SDS011;36334;51.366;0.020;2022-12-18T08:25:41;36.80;;;18.08;;
31758;SDS011;36334;51.366;0.020;2022-12-18T08:28:31;34.55;;;18.13;;
31758;SDS011;36334;51.366;0.020;2022-12-18T08:31:21;36.03;;;18.00;;
31758;SDS011;36334;51.366;0.020;2022-12-18T08:34:08;40.75;;;19.30;;
31758;SDS011;36334;51.366;0.020;2022-12-18T08:36:54;37.92;;;18.33;;
31758;SDS011;36334;51.366;0.020;2022-12-18T08:39:40;37.38;;;18.40;;
31758;SDS011;36334;51.366;0.020;2022-12-18T08:42:26;36.55;;;19.45;;
31758;SDS011;36334;51.366;0.020;2022-12-18T08:45:33;37.97;;;20.52;;
31758;SDS011;36334;51.366;0.020;2022-12-18T08:48:20;36.45;;;18.88;;
31758;SDS011;36334;51.366;0.020;2022-12-18T08:51:07;35.22;;;17.30;;
31758;SDS011;36334;51.366;0.020;2022-12-18T08:53:54;38.72;;;19.17;;
31758;SDS011;36334;51.366;0.020;2022-12-18T08:56:40;38.63;;;19.75;;
31758;SDS011;36334;51.366;0.020;2022-12-18T08:59:27;38.20;;;19.33;;
31758;SDS011;36334;51.366;0.020;2022-12-18T09:02:16;34.58;;;18.80;;
31758;SDS011;36334;51.366;0.020;2022-12-18T09:05:02;41.90;;;18.27;;
31758;SDS011;36334;51.366;0.020;2022-12-18T09:07:49;34.72;;;19.27;;
31758;SDS011;36334;51.366;0.020;2022-12-18T09:10:40;40.00;;;20.33;;
31758;SDS011;36334;51.366;0.020;2022-12-18T09:13:31;36.60;;;19.27;;
31758;SDS011;36334;51.366;0.020;2022-12-18T09:16:24;37.55;;;19.15;;
31758;SDS011;36334;51.366;0.020;2022-12-18T09:19:16;45.63;;;20.27;;
31758;SDS011;36334;51.366;0.020;2022-12-18T09:22:05;36.20;;;19.25;;
31758;SDS011;36334;51.366;0.020;2022-12-18T09:24:53;40.55;;;22.20;;
31758;SDS011;36334;51.366;0.020;2022-12-18T09:27:39;37.47;;;19.35;;
31758;SDS011;36334;51.366;0.020;2022-12-18T09:30:26;37.15;;;19.30;;
31758;SDS011;36334;51.366;0.020;2022-12-18T09:33:12;32.95;;;18.70;;
31758;SDS011;36334;51.366;0.020;2022-12-18T09:36:00;35.33;;;18.98;;
31758;SDS011;36334;51.366;0.020;2022-12-18T09:38:48;33.35;;;18.05;;
31758;SDS011;36334;51.366;0.020;2022-12-18T09:44:41;35.60;;;18.42;;
31758;SDS011;36334;51.366;0.020;2022-12-18T09:47:33;37.25;;;18.88;;
31758;SDS011;36334;51.366;0.020;2022-12-18T09:50:26;31.70;;;18.08;;
31758;SDS011;36334;51.366;0.020;2022-12-18T09:53:22;37.67;;;19.10;;
31758;SDS011;36334;51.366;0.020;2022-12-18T09:56:18;36.20;;;18.67;;
31758;SDS011;36334;51.366;0.020;2022-12-18T09:59:14;37.08;;;20.65;;
31758;SDS011;36334;51.366;0.020;2022-12-18T10:02:18;32.78;;;17.95;;
31758;SDS011;36334;51.366;0.020;2022-12-18T10:05:09;35.80;;;18.73;;
31758;SDS011;36334;51.366;0.020;2022-12-18T10:08:05;33.83;;;17.67;;
31758;SDS011;36334;51.366;0.020;2022-12-18T10:11:09;34.90;;;18.10;;
31758;SDS011;36334;51.366;0.020;2022-12-18T10:17:47;35.85;;;17.33;;
31758;SDS011;36334;51.366;0.020;2022-12-18T10:23:33;37.53;;;19.02;;
31758;SDS011;36334;51.366;0.020;2022-12-18T10:26:32;37.63;;;19.30;;
31758;SDS011;36334;51.366;0.020;2022-12-18T10:29:18;33.67;;;18.30;;
31758;SDS011;36334;51.366;0.020;2022-12-18T10:32:06;33.58;;;17.55;;
31758;SDS011;36334;51.366;0.020;2022-12-18T10:34:55;34.88;;;18.98;;
31758;SDS011;36334;51.366;0.020;2022-12-18T10:43:46;32.25;;;17.65;;
31758;SDS011;36334;51.366;0.020;2022-12-18T10:46:32;32.58;;;17.73;;
31758;SDS011;36334;51.366;0.020;2022-12-18T10:49:22;28.65;;;16.25;;
31758;SDS011;36334;51.366;0.020;2022-12-18T10:52:21;31.75;;;16.33;;
31758;SDS011;36334;51.366;0.020;2022-12-18T10:55:13;27.20;;;15.27;;
31758;SDS011;36334;51.366;0.020;2022-12-18T10:58:18;35.47;;;18.08;;
31758;SDS011;36334;51.366;0.020;2022-12-18T11:01:13;30.25;;;16.00;;
31758;SDS011;36334;51.366;0.020;2022-12-18T11:04:02;31.02;;;16.35;;
31758;SDS011;36334;51.366;0.020;2022-12-18T11:06:56;33.33;;;16.52;;
31758;SDS011;36334;51.366;0.020;2022-12-18T11:09:58;27.00;;;16.38;;
31758;SDS011;36334;51.366;0.020;2022-12-18T11:12:49;30.88;;;16.33;;
31758;SDS011;36334;51.366;0.020;2022-12-18T11:15:35;29.80;;;16.98;;
31758;SDS011;36334;51.366;0.020;2022-12-18T11:18:25;27.50;;;15.35;;
31758;SDS011;36334;51.366;0.020;2022-12-18T11:21:12;31.10;;;17.63;;
31758;SDS011;36334;51.366;0.020;2022-12-18T11:24:00;29.30;;;18.02;;
31758;SDS011;36334;51.366;0.020;2022-12-18T11:26:47;38.67;;;19.48;;
31758;SDS011;36334;51.366;0.020;2022-12-18T11:29:41;32.92;;;18.00;;
31758;SDS011;36334;51.366;0.020;2022-12-18T11:32:33;36.05;;;18.55;;
31758;SDS011;36334;51.366;0.020;2022-12-18T11:35:30;28.38;;;17.42;;
31758;SDS011;36334;51.366;0.020;2022-12-18T11:38:39;37.53;;;17.85;;
31758;SDS011;36334;51.366;0.020;2022-12-18T11:41:30;42.05;;;19.95;;
31758;SDS011;36334;51.366;0.020;2022-12-18T11:44:42;36.60;;;18.67;;
31758;SDS011;36334;51.366;0.020;2022-12-18T11:50:44;35.33;;;18.80;;
31758;SDS011;36334;51.366;0.020;2022-12-18T11:53:39;37.58;;;21.08;;
31758;SDS011;36334;51.366;0.020;2022-12-18T11:56:27;36.83;;;19.13;;
31758;SDS011;36334;51.366;0.020;2022-12-18T12:11:42;36.03;;;20.13;;
31758;SDS011;36334;51.366;0.020;2022-12-18T12:15:00;37.85;;;20.42;;
31758;SDS011;36334;51.366;0.020;2022-12-18T12:33:52;37.55;;;18.73;;
31758;SDS011;36334;51.366;0.020;2022-12-18T12:40:18;34.22;;;18.52;;
31758;SDS011;36334;51.366;0.020;2022-12-18T12:46:47;35.35;;;19.98;;
31758;SDS011;36334;51.366;0.020;2022-12-18T12:49:34;38.05;;;20.30;;
31758;SDS011;36334;51.366;0.020;2022-12-18T12:52:30;37.25;;;18.02;;
31758;SDS011;36334;51.366;0.020;2022-12-18T12:55:26;35.00;;;19.83;;
31758;SDS011;36334;51.366;0.020;2022-12-18T12:58:16;38.10;;;21.98;;
31758;SDS011;36334;51.366;0.020;2022-12-18T13:04:40;34.83;;;19.38;;
31758;SDS011;36334;51.366;0.020;2022-12-18T13:07:32;33.88;;;17.42;;
31758;SDS011;36334;51.366;0.020;2022-12-18T13:10:26;36.43;;;19.83;;
31758;SDS011;36334;51.366;0.020;2022-12-18T13:13:17;31.85;;;18.25;;
31758;SDS011;36334;51.366;0.020;2022-12-18T13:16:09;39.72;;;18.58;;
31758;SDS011;36334;51.366;0.020;2022-12-18T13:18:56;33.33;;;18.85;;
31758;SDS011;36334;51.366;0.020;2022-12-18T13:21:45;36.17;;;19.38;;
31758;SDS011;36334;51.366;0.020;2022-12-18T13:24:40;32.47;;;16.88;;
31758;SDS011;36334;51.366;0.020;2022-12-18T13:27:45;32.60;;;17.10;;
31758;SDS011;36334;51.366;0.020;2022-12-18T13:30:56;28.33;;;17.38;;
31758;SDS011;36334;51.366;0.020;2022-12-18T13:33:43;29.58;;;16.00;;
31758;SDS011;36334;51.366;0.020;2022-12-18T13:36:50;31.25;;;17.58;;
31758;SDS011;36334;51.366;0.020;2022-12-18T13:39:38;31.50;;;17.63;;
31758;SDS011;36334;51.366;0.020;2022-12-18T13:42:37;28.90;;;16.38;;
31758;SDS011;36334;51.366;0.020;2022-12-18T13:45:43;30.58;;;15.40;;
31758;SDS011;36334;51.366;0.020;2022-12-18T13:48:48;23.98;;;15.02;;
31758;SDS011;36334;51.366;0.020;2022-12-18T13:51:47;28.08;;;15.43;;
31758;SDS011;36334;51.366;0.020;2022-12-18T13:54:37;28.55;;;16.13;;
31758;SDS011;36334;51.366;0.020;2022-12-18T14:03:16;27.77;;;14.57;;
31758;SDS011;36334;51.366;0.020;2022-12-18T14:06:07;24.65;;;15.00;;
31758;SDS011;36334;51.366;0.020;2022-12-18T14:08:54;25.35;;;15.25;;
31758;SDS011;36334;51.366;0.020;2022-12-18T14:11:46;24.15;;;14.38;;
31758;SDS011;36334;51.366;0.020;2022-12-18T14:14:34;29.35;;;14.65;;
31758;SDS011;36334;51.366;0.020;2022-12-18T14:17:20;25.85;;;14.65;;
31758;SDS011;36334;51.366;0.020;2022-12-18T14:20:12;26.65;;;14.35;;
31758;SDS011;36334;51.366;0.020;2022-12-18T14:23:00;22.67;;;12.98;;
31758;SDS011;36334;51.366;0.020;2022-12-18T14:25:50;25.13;;;13.82;;
31758;SDS011;36334;51.366;0.020;2022-12-18T14:28:42;21.52;;;12.95;;
31758;SDS011;36334;51.366;0.020;2022-12-18T14:31:29;24.13;;;14.68;;
31758;SDS011;36334;51.366;0.020;2022-12-18T14:34:17;21.95;;;12.73;;
31758;SDS011;36334;51.366;0.020;2022-12-18T14:37:03;22.35;;;14.35;;
31758;SDS011;36334;51.366;0.020;2022-12-18T14:39:59;21.00;;;12.65;;
31758;SDS011;36334;51.366;0.020;2022-12-18T14:42:56;25.77;;;14.57;;
31758;SDS011;36334;51.366;0.020;2022-12-18T14:45:42;21.52;;;13.07;;
31758;SDS011;36334;51.366;0.020;2022-12-18T14:48:39;21.90;;;12.75;;
31758;SDS011;36334;51.366;0.020;2022-12-18T14:51:33;20.85;;;12.40;;
31758;SDS011;36334;51.366;0.020;2022-12-18T14:54:22;21.42;;;13.55;;
31758;SDS011;36334;51.366;0.020;2022-12-18T14:57:18;21.73;;;12.38;;
31758;SDS011;36334;51.366;0.020;2022-12-18T15:00:19;23.20;;;13.55;;
31758;SDS011;36334;51.366;0.020;2022-12-18T15:03:08;21.08;;;12.82;;
31758;SDS011;36334;51.366;0.020;2022-12-18T15:05:55;22.95;;;13.68;;
31758;SDS011;36334;51.366;0.020;2022-12-18T15:09:03;25.58;;;12.98;;
31758;SDS011;36334;51.366;0.020;2022-12-18T15:12:22;22.30;;;12.60;;
31758;SDS011;36334;51.366;0.020;2022-12-18T15:18:23;21.65;;;12.23;;
31758;SDS011;36334;51.366;0.020;2022-12-18T15:21:19;19.30;;;11.02;;
31758;SDS011;36334;51.366;0.020;2022-12-18T15:24:13;18.38;;;11.30;;
31758;SDS011;36334;51.366;0.020;2022-12-18T15:27:04;19.80;;;10.95;;
31758;SDS011;36334;51.366;0.020;2022-12-18T15:30:16;21.13;;;12.18;;
31758;SDS011;36334;51.366;0.020;2022-12-18T15:33:23;17.83;;;11.98;;
31758;SDS011;36334;51.366;0.020;2022-12-18T15:36:13;20.65;;;13.07;;
31758;SDS011;36334;51.366;0.020;2022-12-18T15:39:11;20.38;;;12.45;;
31758;SDS011;36334;51.366;0.020;2022-12-18T15:41:58;21.48;;;12.18;;
31758;SDS011;36334;51.366;0.020;2022-12-18T15:45:05;20.85;;;12.68;;
31758;SDS011;36334;51.366;0.020;2022-12-18T15:47:51;23.25;;;12.27;;
31758;SDS011;36334;51.366;0.020;2022-12-18T15:50:40;20.02;;;12.13;;
31758;SDS011;36334;51.366;0.020;2022-12-18T15:53:27;21.80;;;13.48;;
31758;SDS011;36334;51.366;0.020;2022-12-18T15:56:17;17.75;;;10.45;;
31758;SDS011;36334;51.366;0.020;2022-12-18T15:59:22;19.50;;;11.68;;
31758;SDS011;36334;51.366;0.020;2022-12-18T16:02:12;18.73;;;11.45;;
31758;SDS011;36334;51.366;0.020;2022-12-18T16:05:05;18.50;;;12.38;;
31758;SDS011;36334;51.366;0.020;2022-12-18T16:07:59;17.08;;;10.82;;
31758;SDS011;36334;51.366;0.020;2022-12-18T16:10:48;17.70;;;10.30;;
31758;SDS011;36334;51.366;0.020;2022-12-18T16:13:34;21.33;;;11.25;;
31758;SDS011;36334;51.366;0.020;2022-12-18T16:16:21;16.83;;;9.98;;
31758;SDS011;36334;51.366;0.020;2022-12-18T16:19:08;13.70;;;9.15;;
31758;SDS011;36334;51.366;0.020;2022-12-18T16:21:55;13.45;;;8.93;;
31758;SDS011;36334;51.366;0.020;2022-12-18T16:24:43;13.77;;;8.80;;
31758;SDS011;36334;51.366;0.020;2022-12-18T16:27:29;16.02;;;9.07;;
31758;SDS011;36334;51.366;0.020;2022-12-18T16:30:16;12.65;;;7.78;;
31758;SDS011;36334;51.366;0.020;2022-12-18T16:33:04;13.82;;;9.00;;
31758;SDS011;36334;51.366;0.020;2022-12-18T16:35:52;13.88;;;7.97;;
31758;SDS011;36334;51.366;0.020;2022-12-18T16:38:38;13.98;;;8.00;;
31758;SDS011;36334;51.366;0.020;2022-12-18T16:41:24;12.00;;;7.90;;
31758;SDS011;36334;51.366;0.020;2022-12-18T16:44:16;13.05;;;7.63;;
31758;SDS011;36334;51.366;0.020;2022-12-18T16:47:06;11.40;;;7.45;;
31758;SDS011;36334;51.366;0.020;2022-12-18T16:49:54;11.50;;;8.48;;
31758;SDS011;36334;51.366;0.020;2022-12-18T16:52:40;17.73;;;8.10;;
31758;SDS011;36334;51.366;0.020;2022-12-18T16:55:26;10.50;;;6.78;;
31758;SDS011;36334;51.366;0.020;2022-12-18T16:58:13;13.52;;;7.40;;
31758;SDS011;36334;51.366;0.020;2022-12-18T17:00:59;9.23;;;6.75;;
31758;SDS011;36334;51.366;0.020;2022-12-18T17:03:52;10.30;;;7.10;;
31758;SDS011;36334;51.366;0.020;2022-12-18T17:06:41;10.98;;;7.95;;
31758;SDS011;36334;51.366;0.020;2022-12-18T17:09:30;11.15;;;7.22;;
31758;SDS011;36334;51.366;0.020;2022-12-18T17:12:16;15.55;;;8.30;;
31758;SDS011;36334;51.366;0.020;2022-12-18T17:15:02;13.25;;;9.40;;
31758;SDS011;36334;51.366;0.020;2022-12-18T17:17:48;11.95;;;8.40;;
31758;SDS011;36334;51.366;0.020;2022-12-18T17:20:35;14.02;;;9.60;;
31758;SDS011;36334;51.366;0.020;2022-12-18T17:23:21;14.75;;;9.18;;
31758;SDS011;36334;51.366;0.020;2022-12-18T17:26:07;14.18;;;9.40;;
31758;SDS011;36334;51.366;0.020;2022-12-18T17:28:55;11.02;;;7.35;;
31758;SDS011;36334;51.366;0.020;2022-12-18T17:31:42;11.73;;;8.15;;
31758;SDS011;36334;51.366;0.020;2022-12-18T17:34:28;12.57;;;8.50;;
31758;SDS011;36334;51.366;0.020;2022-12-18T17:37:15;13.27;;;8.52;;
31758;SDS011;36334;51.366;0.020;2022-12-18T17:40:01;11.10;;;8.43;;
31758;SDS011;36334;51.366;0.020;2022-12-18T17:42:47;10.60;;;7.70;;
31758;SDS011;36334;51.366;0.020;2022-12-18T17:45:38;10.60;;;7.20;;
31758;SDS011;36334;51.366;0.020;2022-12-18T17:48:24;10.05;;;7.40;;
31758;SDS011;36334;51.366;0.020;2022-12-18T17:51:10;9.98;;;6.53;;
31758;SDS011;36334;51.366;0.020;2022-12-18T17:53:57;9.57;;;6.50;;
31758;SDS011;36334;51.366;0.020;2022-12-18T17:56:43;9.05;;;6.60;;
31758;SDS011;36334;51.366;0.020;2022-12-18T17:59:30;8.98;;;7.15;;
31758;SDS011;36334;51.366;0.020;2022-12-18T18:02:16;9.57;;;5.80;;
31758;SDS011;36334;51.366;0.020;2022-12-18T18:05:04;12.32;;;7.63;;
31758;SDS011;36334;51.366;0.020;2022-12-18T18:07:50;10.00;;;6.53;;
31758;SDS011;36334;51.366;0.020;2022-12-18T18:10:39;10.10;;;7.28;;
31758;SDS011;36334;51.366;0.020;2022-12-18T18:13:26;9.13;;;6.97;;
31758;SDS011;36334;51.366;0.020;2022-12-18T18:16:33;8.73;;;6.10;;
31758;SDS011;36334;51.366;0.020;2022-12-18T18:19:24;9.90;;;6.13;;
31758;SDS011;36334;51.366;0.020;2022-12-18T18:22:10;11.20;;;6.53;;
31758;SDS011;36334;51.366;0.020;2022-12-18T18:25:08;8.57;;;6.03;;
31758;SDS011;36334;51.366;0.020;2022-12-18T18:27:55;8.68;;;6.32;;
31758;SDS011;36334;51.366;0.020;2022-12-18T18:30:41;9.73;;;7.10;;
31758;SDS011;36334;51.366;0.020;2022-12-18T18:33:27;9.82;;;7.32;;
31758;SDS011;36334;51.366;0.020;2022-12-18T18:36:15;9.63;;;6.05;;
31758;SDS011;36334;51.366;0.020;2022-12-18T18:39:01;10.48;;;7.18;;
31758;SDS011;36334;51.366;0.020;2022-12-18T18:41:47;9.15;;;6.57;;
31758;SDS011;36334;51.366;0.020;2022-12-18T18:44:34;10.45;;;7.70;;
31758;SDS011;36334;51.366;0.020;2022-12-18T18:47:20;12.13;;;7.20;;
31758;SDS011;36334;51.366;0.020;2022-12-18T18:50:06;10.43;;;6.10;;